Time;durP1;ratioP1;P1;durP2;ratioP2;P2;SDS_P1;SDS_P2;PMS_P1;PMS_P2;Temp;Humidity;BMP_temperature;BMP_pressure;BME280_temperature;BME280_humidity;BME280_pressure;Samples;Min_cycle;Max_cycle;Signal;HPM_P1;HPM_P2
2023/07/23 00:01:26;;;;;;;6.25;4.18;;;;;;;37.22;20.82;100789.69;4949792;28;20047;-79
2023/07/23 00:04:03;;;;;;;15.52;10.80;;;;;;;37.24;19.76;100795.81;4948004;28;20058;-77
2023/07/23 00:06:33;;;;;;;1.52;0.75;;;;;;;37.25;19.82;100782.22;4949212;28;20060;-74
2023/07/23 00:09:03;;;;;;;1.33;0.60;;;;;;;37.25;20.15;100786.75;4955298;28;20072;-75
2023/07/23 00:11:32;;;;;;;1.65;0.57;;;;;;;37.22;20.46;100781.59;4947582;28;20071;-75
2023/07/23 00:14:08;;;;;;;2.20;0.73;;;;;;;37.20;20.33;100779.03;4944853;28;20080;-75
2023/07/23 00:16:36;;;;;;;1.42;0.63;;;;;;;37.19;20.36;100780.00;4944787;28;20120;-75
2023/07/23 00:19:07;;;;;;;1.17;0.65;;;;;;;37.11;20.70;100766.28;4947784;28;20486;-75
2023/07/23 00:21:37;;;;;;;2.47;0.60;;;;;;;37.15;20.53;100781.22;4945032;28;20055;-76
2023/07/23 00:24:07;;;;;;;1.00;0.70;;;;;;;37.13;20.82;100772.41;4948899;28;20126;-76
2023/07/23 00:26:35;;;;;;;0.95;0.70;;;;;;;37.06;21.27;100760.38;4947752;28;20051;-73
2023/07/23 00:29:04;;;;;;;2.80;0.50;;;;;;;36.88;21.36;100760.94;4947021;28;20050;-74
2023/07/23 00:31:33;;;;;;;1.27;0.60;;;;;;;36.76;21.54;100761.06;4947564;28;20490;-75
2023/07/23 00:34:03;;;;;;;2.83;0.50;;;;;;;36.67;21.17;100757.25;4940348;28;20047;-75
2023/07/23 00:36:33;;;;;;;1.70;0.50;;;;;;;36.57;20.72;100759.81;4947204;28;20082;-74
2023/07/23 00:39:09;;;;;;;2.92;0.57;;;;;;;36.49;21.16;100757.72;4945500;28;20097;-74
2023/07/23 00:41:37;;;;;;;1.08;0.50;;;;;;;36.39;21.67;100748.66;4949336;28;20055;-73
2023/07/23 00:44:06;;;;;;;1.27;0.55;;;;;;;36.28;21.60;100745.94;4946201;28;20107;-74
2023/07/23 00:46:35;;;;;;;2.28;0.60;;;;;;;36.22;22.79;100746.47;4948257;28;20521;-75
2023/07/23 00:49:04;;;;;;;1.35;0.70;;;;;;;36.11;22.47;100741.06;4946888;28;20039;-75
2023/07/23 00:51:36;;;;;;;3.53;0.50;;;;;;;36.03;22.37;100750.56;4946001;28;20044;-78
2023/07/23 00:54:06;;;;;;;1.88;0.57;;;;;;;36.05;22.08;100743.19;4946761;28;20095;-76
2023/07/23 00:56:36;;;;;;;1.85;0.60;;;;;;;36.03;22.12;100739.78;4947454;28;20055;-76
2023/07/23 00:59:05;;;;;;;1.05;0.60;;;;;;;36.00;22.37;100736.47;4946187;28;20418;-76
2023/07/23 01:01:33;;;;;;;0.70;0.60;;;;;;;35.93;22.68;100735.22;4946291;28;20340;-76
2023/07/23 01:04:02;;;;;;;2.97;0.50;;;;;;;35.84;22.42;100726.03;4946878;28;20609;-76
2023/07/23 01:06:38;;;;;;;0.70;0.52;;;;;;;35.74;23.09;100727.72;4948368;28;20063;-75
2023/07/23 01:09:07;;;;;;;1.08;0.60;;;;;;;35.55;23.60;100729.09;4945861;28;20142;-78
2023/07/23 01:11:37;;;;;;;1.23;0.60;;;;;;;35.39;23.71;100725.84;4943520;28;20044;-77
2023/07/23 01:14:06;;;;;;;1.67;0.60;;;;;;;35.18;24.09;100720.25;4942168;28;20434;-75
2023/07/23 01:16:39;;;;;;;5.00;0.80;;;;;;;35.09;24.55;100723.59;4945914;28;20598;-76
2023/07/23 01:19:10;;;;;;;7.25;0.77;;;;;;;35.00;24.42;100711.69;4947676;28;20062;-75
2023/07/23 01:21:40;;;;;;;0.57;0.50;;;;;;;34.95;24.94;100719.22;4948067;28;20164;-77
2023/07/23 01:24:10;;;;;;;3.72;0.90;;;;;;;34.86;25.10;100725.28;4951568;28;20065;-78
2023/07/23 01:26:42;;;;;;;1.00;0.67;;;;;;;34.76;25.76;100725.97;4950915;28;20300;-75
2023/07/23 01:29:11;;;;;;;1.55;0.80;;;;;;;34.67;25.58;100723.09;4949124;28;20062;-76
2023/07/23 01:31:40;;;;;;;2.58;0.93;;;;;;;34.57;25.86;100721.03;4950073;28;20050;-76
2023/07/23 01:34:09;;;;;;;2.17;0.98;;;;;;;34.49;25.70;100712.66;4952221;28;20134;-76
2023/07/23 01:36:41;;;;;;;1.27;0.63;;;;;;;34.44;26.81;100717.50;4954370;28;20110;-75
2023/07/23 01:39:11;;;;;;;1.10;0.80;;;;;;;34.38;26.42;100712.56;4952989;28;20139;-76
2023/07/23 01:41:40;;;;;;;1.65;1.05;;;;;;;34.27;26.79;100712.44;4949018;28;20489;-74
2023/07/23 01:44:09;;;;;;;1.67;0.60;;;;;;;34.19;27.17;100719.22;4949222;28;20066;-77
2023/07/23 01:46:37;;;;;;;1.98;0.70;;;;;;;34.13;27.35;100717.00;4947787;28;20054;-77
2023/07/23 01:49:08;;;;;;;0.98;0.68;;;;;;;34.09;27.79;100711.91;4955931;28;20505;-75
2023/07/23 01:51:37;;;;;;;5.85;0.98;;;;;;;33.96;27.78;100704.69;4951200;28;20482;-76
2023/07/23 01:54:05;;;;;;;0.73;0.60;;;;;;;33.90;27.41;100705.16;4949245;28;20051;-78
2023/07/23 01:56:36;;;;;;;4.00;0.70;;;;;;;33.82;28.07;100710.19;4951013;28;20059;-78
2023/07/23 01:59:07;;;;;;;1.55;0.60;;;;;;;33.77;28.37;100707.81;4950456;28;20051;-77
2023/07/23 02:01:35;;;;;;;1.35;0.60;;;;;;;33.68;28.82;100703.06;4956399;28;20047;-76
2023/07/23 02:04:04;;;;;;;1.70;0.85;;;;;;;33.58;28.47;100710.91;4951039;28;20533;-77
2023/07/23 02:06:32;;;;;;;4.72;0.63;;;;;;;33.50;28.80;100707.81;4945912;28;20127;-76
2023/07/23 02:09:01;;;;;;;2.38;1.05;;;;;;;33.47;29.37;100718.78;4956310;28;20061;-78
2023/07/23 02:11:31;;;;;;;4.45;0.70;;;;;;;33.39;29.14;100715.72;4944933;28;20087;-77
2023/07/23 02:14:02;;;;;;;1.05;0.73;;;;;;;33.31;29.46;100712.72;4951966;28;20055;-78
2023/07/23 02:16:30;;;;;;;1.10;0.60;;;;;;;33.17;30.06;100711.81;4950570;28;20118;-77
2023/07/23 02:19:00;;;;;;;1.38;0.73;;;;;;;33.03;29.55;100714.47;4946171;28;20054;-77
2023/07/23 02:21:28;;;;;;;1.23;0.60;;;;;;;32.95;30.13;100709.63;4951253;28;20679;-76
2023/07/23 02:24:00;;;;;;;0.52;0.45;;;;;;;32.87;30.24;100711.97;4952432;28;20083;-76
2023/07/23 02:26:28;;;;;;;1.15;0.60;;;;;;;32.80;30.45;100707.94;4951735;28;20592;-77
2023/07/23 02:28:57;;;;;;;0.80;0.70;;;;;;;32.74;31.72;100709.22;4951700;28;20059;-77
2023/07/23 02:31:27;;;;;;;1.50;0.50;;;;;;;32.64;31.11;100718.78;4951748;28;20043;-78
2023/07/23 02:33:57;;;;;;;0.75;0.70;;;;;;;32.55;31.49;100716.69;4949648;28;20043;-78
2023/07/23 02:36:26;;;;;;;0.60;0.50;;;;;;;32.44;31.53;100716.50;4951223;28;20058;-78
2023/07/23 02:38:55;;;;;;;1.60;0.60;;;;;;;32.35;32.03;100724.13;4951867;28;20529;-75
2023/07/23 02:41:24;;;;;;;1.75;0.50;;;;;;;32.27;31.81;100721.06;4948142;28;20596;-74
2023/07/23 02:43:53;;;;;;;0.90;0.50;;;;;;;32.22;32.18;100714.28;4952692;28;20055;-79
2023/07/23 02:46:21;;;;;;;0.57;0.50;;;;;;;32.14;32.86;100720.13;4951409;28;20039;-76
2023/07/23 02:48:52;;;;;;;1.85;0.50;;;;;;;32.06;32.88;100719.72;4952491;28;20618;-78
2023/07/23 02:51:21;;;;;;;0.63;0.50;;;;;;;31.96;32.91;100716.75;4953181;28;20047;-79
2023/07/23 02:53:50;;;;;;;2.00;0.40;;;;;;;31.89;33.69;100723.41;4955178;28;20478;-76
2023/07/23 02:56:19;;;;;;;0.85;0.50;;;;;;;31.79;33.57;100720.38;4950747;28;20039;-76
2023/07/23 02:58:48;;;;;;;0.60;0.40;;;;;;;31.64;34.22;100721.34;4954637;28;20051;-76
2023/07/23 03:01:17;;;;;;;0.90;0.60;;;;;;;31.44;33.82;100719.81;4954875;28;20533;-76
2023/07/23 03:03:49;;;;;;;2.53;0.70;;;;;;;31.30;34.56;100724.13;4953415;28;20105;-79
2023/07/23 03:06:20;;;;;;;1.40;0.60;;;;;;;31.19;35.33;100725.69;4954611;28;20079;-76
2023/07/23 03:08:49;;;;;;;0.52;0.40;;;;;;;31.09;35.36;100720.88;4955223;28;20138;-79
2023/07/23 03:11:18;;;;;;;1.75;0.80;;;;;;;30.99;35.29;100725.00;4953172;28;20051;-74
2023/07/23 03:13:46;;;;;;;4.10;0.52;;;;;;;30.88;35.33;100727.44;4955385;28;20567;-75
2023/07/23 03:16:15;;;;;;;0.90;0.68;;;;;;;30.75;35.60;100727.22;4955372;28;20066;-77
2023/07/23 03:18:44;;;;;;;2.65;0.60;;;;;;;30.64;35.72;100721.59;4955174;28;20047;-77
2023/07/23 03:21:14;;;;;;;1.05;0.60;;;;;;;30.55;36.14;100727.44;4953138;28;20108;-77
2023/07/23 03:23:45;;;;;;;0.98;0.50;;;;;;;30.43;36.16;100732.50;4947117;28;20058;-77
2023/07/23 03:26:13;;;;;;;0.67;0.60;;;;;;;30.34;36.43;100732.13;4955797;28;20137;-79
2023/07/23 03:28:42;;;;;;;1.80;0.63;;;;;;;30.22;36.61;100730.97;4945896;28;20054;-77
2023/07/23 03:31:11;;;;;;;1.33;0.50;;;;;;;30.10;36.94;100735.16;4949153;28;20043;-80
2023/07/23 03:33:40;;;;;;;3.10;0.60;;;;;;;29.99;37.30;100740.16;4952338;28;20054;-78
2023/07/23 03:36:10;;;;;;;1.40;0.60;;;;;;;29.89;37.14;100736.25;4951609;28;20055;-79
2023/07/23 03:38:39;;;;;;;1.10;0.77;;;;;;;29.79;37.28;100734.03;4951353;28;20166;-79
2023/07/23 03:41:12;;;;;;;2.10;0.70;;;;;;;29.69;37.55;100729.25;4956428;28;20059;-83
2023/07/23 03:43:41;;;;;;;0.70;0.52;;;;;;;29.59;37.77;100734.16;4952178;28;20051;-82
2023/07/23 03:46:10;;;;;;;0.73;0.50;;;;;;;29.44;38.17;100736.66;4952096;28;20142;-82
2023/07/23 03:48:39;;;;;;;1.17;0.68;;;;;;;29.31;38.64;100740.84;4956372;28;20736;-82
2023/07/23 03:51:13;;;;;;;1.60;0.60;;;;;;;29.23;38.70;100733.25;4955327;28;20400;-79
2023/07/23 03:53:42;;;;;;;1.20;0.80;;;;;;;29.17;38.82;100740.69;4952363;28;20039;-80
2023/07/23 03:56:12;;;;;;;1.40;0.60;;;;;;;29.01;38.82;100733.38;4950337;28;20544;-82
2023/07/23 03:58:41;;;;;;;1.77;0.60;;;;;;;28.96;39.56;100746.06;4951805;28;20047;-80
2023/07/23 04:01:12;;;;;;;1.38;0.75;;;;;;;28.90;39.18;100745.47;4949661;28;20081;-82
2023/07/23 04:03:46;;;;;;;1.92;0.60;;;;;;;28.77;39.58;100745.19;4952241;28;20045;-79
2023/07/23 04:06:15;;;;;;;2.65;0.80;;;;;;;28.69;39.71;100755.34;4956347;28;20055;-80
2023/07/23 04:08:44;;;;;;;4.13;0.90;;;;;;;28.60;39.56;100764.59;4956777;28;20066;-82
2023/07/23 04:11:24;;;;;;;1.13;0.60;;;;;;;28.53;39.84;100768.47;4955884;29;20051;-82
2023/07/23 04:13:55;;;;;;;0.95;0.68;;;;;;;28.43;40.05;100760.03;4965107;28;20043;-85
2023/07/23 04:16:42;;;;;;;2.78;0.65;;;;;;;28.34;40.37;100761.28;4958723;28;20051;-83
2023/07/23 04:19:12;;;;;;;1.38;0.65;;;;;;;28.30;41.10;100772.13;4957887;28;20059;-79
2023/07/23 04:21:46;;;;;;;1.63;0.70;;;;;;;28.25;41.06;100774.16;4950727;28;20133;-81
2023/07/23 04:24:18;;;;;;;1.15;0.60;;;;;;;28.18;40.76;100770.88;4949913;28;20133;-80
2023/07/23 04:26:48;;;;;;;1.92;0.60;;;;;;;28.11;40.80;100777.41;4950717;28;20059;-83
2023/07/23 04:29:16;;;;;;;1.10;0.70;;;;;;;28.05;40.84;100775.00;4945652;28;20103;-81
2023/07/23 04:31:45;;;;;;;0.82;0.52;;;;;;;27.99;41.12;100773.44;4947272;28;20103;-79
2023/07/23 04:34:28;;;;;;;1.55;0.70;;;;;;;27.96;41.09;100778.91;4950657;28;20069;-80
2023/07/23 04:36:57;;;;;;;2.60;0.60;;;;;;;27.88;42.66;100781.06;4951175;28;20623;-82
2023/07/23 04:39:27;;;;;;;1.80;0.70;;;;;;;27.78;41.55;100781.38;4949441;28;20059;-78
2023/07/23 04:42:03;;;;;;;2.70;0.75;;;;;;;27.72;42.08;100783.44;4946493;28;20107;-78
2023/07/23 04:44:32;;;;;;;0.88;0.70;;;;;;;27.65;42.15;100785.50;4952896;28;20047;-83
2023/07/23 04:47:01;;;;;;;2.28;0.90;;;;;;;27.58;42.11;100784.88;4938951;28;20051;-80
2023/07/23 04:49:30;;;;;;;1.33;0.60;;;;;;;27.52;41.96;100790.44;4953346;28;20452;-81
2023/07/23 04:51:58;;;;;;;0.95;0.73;;;;;;;27.49;42.33;100795.03;4950651;28;20055;-80
2023/07/23 04:54:27;;;;;;;2.03;0.73;;;;;;;27.43;42.60;100789.94;4952451;28;20055;-78
2023/07/23 04:56:57;;;;;;;0.65;0.57;;;;;;;27.34;42.54;100792.03;4953113;28;20425;-76
2023/07/23 04:59:25;;;;;;;1.50;0.50;;;;;;;27.27;42.60;100787.03;4951262;28;20537;-75
2023/07/23 05:01:54;;;;;;;1.33;0.70;;;;;;;27.23;42.97;100788.94;4951434;28;20055;-77
2023/07/23 05:04:22;;;;;;;3.45;0.70;;;;;;;27.17;42.36;100790.03;4949574;28;20575;-77
2023/07/23 05:06:51;;;;;;;1.27;0.90;;;;;;;27.15;42.72;100791.00;4950648;28;20485;-76
2023/07/23 05:09:20;;;;;;;1.08;0.70;;;;;;;27.12;42.47;100799.97;4946609;28;20066;-78
2023/07/23 05:11:48;;;;;;;0.98;0.70;;;;;;;27.08;41.98;100794.84;4953999;28;20528;-80
2023/07/23 05:14:19;;;;;;;0.70;0.60;;;;;;;27.03;41.98;100791.47;4956911;28;20500;-78
2023/07/23 05:16:48;;;;;;;1.38;0.65;;;;;;;26.99;43.35;100804.00;4952643;28;20126;-79
2023/07/23 05:19:17;;;;;;;1.02;0.63;;;;;;;26.93;44.18;100794.47;4948751;28;20496;-78
2023/07/23 05:21:45;;;;;;;1.65;0.98;;;;;;;26.87;43.54;100797.38;4947578;28;20520;-77
2023/07/23 05:24:14;;;;;;;1.55;0.60;;;;;;;26.82;42.77;100801.13;4953666;28;20111;-77
2023/07/23 05:26:43;;;;;;;1.30;0.70;;;;;;;26.76;42.74;100798.72;4956526;28;20057;-76
2023/07/23 05:29:11;;;;;;;1.10;0.57;;;;;;;26.68;42.13;100796.31;4950962;28;20055;-78
2023/07/23 05:31:42;;;;;;;2.08;0.65;;;;;;;26.64;43.74;100805.31;4951928;28;20439;-78
2023/07/23 05:34:11;;;;;;;1.00;0.70;;;;;;;26.57;43.09;100798.50;4952747;28;20114;-79
2023/07/23 05:36:40;;;;;;;2.45;0.80;;;;;;;26.51;42.85;100800.44;4951972;28;20054;-78
2023/07/23 05:39:22;;;;;;;2.28;0.75;;;;;;;26.45;42.91;100799.78;4952628;28;20047;-78
2023/07/23 05:41:50;;;;;;;1.13;0.70;;;;;;;26.38;43.13;100796.47;4949692;28;20059;-79
2023/07/23 05:44:19;;;;;;;1.30;0.90;;;;;;;26.32;43.42;100800.22;4951592;28;20058;-77
2023/07/23 05:46:49;;;;;;;1.77;0.95;;;;;;;26.18;43.27;100791.00;4943152;29;20449;-78
2023/07/23 05:49:18;;;;;;;3.78;0.80;;;;;;;26.19;43.17;100808.66;4947019;28;20115;-78
2023/07/23 05:51:47;;;;;;;1.10;0.70;;;;;;;26.10;43.86;100805.41;4949701;28;20067;-79
2023/07/23 05:54:15;;;;;;;1.77;0.80;;;;;;;26.03;43.65;100808.31;4947999;28;20047;-77
2023/07/23 05:56:51;;;;;;;2.67;1.05;;;;;;;25.95;43.90;100808.56;4946945;28;20482;-79
2023/07/23 05:59:20;;;;;;;2.72;0.90;;;;;;;25.84;44.00;100802.75;4952488;28;20106;-80
2023/07/23 06:01:50;;;;;;;0.80;0.70;;;;;;;25.76;44.12;100810.94;4946712;28;20446;-80
2023/07/23 06:04:26;;;;;;;1.40;0.80;;;;;;;25.68;44.38;100812.97;4948297;28;20916;-79
2023/07/23 06:06:55;;;;;;;2.45;1.17;;;;;;;25.63;44.96;100817.53;4949755;28;20122;-78
2023/07/23 06:09:25;;;;;;;2.75;0.90;;;;;;;25.59;44.80;100824.72;4951097;28;20545;-77
2023/07/23 06:11:54;;;;;;;1.95;0.88;;;;;;;25.53;45.03;100827.56;4954207;28;20055;-77
2023/07/23 06:14:22;;;;;;;1.10;0.70;;;;;;;25.44;45.29;100825.19;4949303;28;20077;-81
2023/07/23 06:16:52;;;;;;;1.35;0.80;;;;;;;25.39;44.69;100824.50;4952495;28;20418;-79
2023/07/23 06:19:21;;;;;;;1.00;0.70;;;;;;;25.38;44.30;100822.72;4951098;28;20142;-78
2023/07/23 06:21:50;;;;;;;0.93;0.80;;;;;;;25.35;45.75;100831.66;4953386;28;20046;-78
2023/07/23 06:24:18;;;;;;;2.10;0.90;;;;;;;25.31;45.18;100829.13;4948653;28;20066;-78
2023/07/23 06:26:47;;;;;;;2.05;0.90;;;;;;;25.21;45.33;100824.13;4950121;28;20058;-76
2023/07/23 06:29:15;;;;;;;3.95;1.20;;;;;;;25.13;46.45;100831.41;4946652;28;20458;-81
2023/07/23 06:31:44;;;;;;;2.17;0.98;;;;;;;25.06;46.18;100833.38;4948698;28;20532;-80
2023/07/23 06:34:14;;;;;;;1.20;0.80;;;;;;;24.98;45.77;100827.41;4950051;28;20051;-77
2023/07/23 06:36:45;;;;;;;2.08;0.98;;;;;;;24.90;45.82;100839.13;4951791;28;20496;-79
2023/07/23 06:39:21;;;;;;;3.47;0.90;;;;;;;24.81;45.78;100832.34;4952613;28;20054;-77
2023/07/23 06:41:56;;;;;;;1.33;1.00;;;;;;;24.75;46.02;100824.56;4943304;28;20096;-77
2023/07/23 06:44:25;;;;;;;1.42;0.70;;;;;;;24.71;46.69;100825.56;4946924;28;20044;-77
2023/07/23 06:46:56;;;;;;;2.42;0.77;;;;;;;24.67;46.34;100824.81;4949509;28;20055;-81
2023/07/23 06:49:28;;;;;;;0.90;0.70;;;;;;;24.61;46.14;100822.31;4949633;28;21094;-76
2023/07/23 06:51:57;;;;;;;2.58;0.85;;;;;;;24.54;46.08;100826.91;4949405;28;20757;-79
2023/07/23 06:54:26;;;;;;;1.50;1.02;;;;;;;24.48;45.73;100827.06;4951133;28;20097;-82
2023/07/23 06:56:56;;;;;;;1.35;0.80;;;;;;;24.43;46.12;100829.78;4946542;28;20590;-82
2023/07/23 06:59:24;;;;;;;1.98;1.05;;;;;;;24.38;46.34;100826.41;4946067;28;20069;-84
2023/07/23 07:01:53;;;;;;;1.95;0.82;;;;;;;24.34;44.73;100829.19;4947661;28;20047;-86
2023/07/23 07:04:22;;;;;;;1.10;0.80;;;;;;;24.29;44.92;100831.09;4956345;28;20047;-82
2023/07/23 07:06:52;;;;;;;1.40;1.00;;;;;;;24.22;45.65;100830.38;4949940;28;20509;-84
2023/07/23 07:09:21;;;;;;;3.25;1.00;;;;;;;24.15;43.90;100829.66;4954654;28;20063;-83
2023/07/23 07:11:52;;;;;;;0.95;0.70;;;;;;;24.13;42.54;100831.47;4950806;28;20066;-83
2023/07/23 07:14:23;;;;;;;2.33;0.90;;;;;;;24.12;42.29;100828.84;4957859;28;20874;-84
2023/07/23 07:16:52;;;;;;;1.45;0.90;;;;;;;24.12;42.39;100834.16;4957754;28;21200;-81
2023/07/23 07:19:20;;;;;;;3.25;1.20;;;;;;;24.11;41.25;100832.41;4940742;28;20058;-82
2023/07/23 07:21:51;;;;;;;1.10;0.90;;;;;;;24.08;40.98;100836.00;4953511;28;20466;-82
2023/07/23 07:24:22;;;;;;;2.22;1.10;;;;;;;24.04;40.84;100829.94;4944565;28;20489;-80
2023/07/23 07:26:51;;;;;;;1.20;1.10;;;;;;;24.00;40.38;100830.91;4955213;28;20047;-81
2023/07/23 07:29:19;;;;;;;1.83;1.23;;;;;;;23.95;41.27;100831.94;4951601;28;20106;-82
2023/07/23 07:31:48;;;;;;;1.55;0.90;;;;;;;23.88;40.72;100836.50;4953045;28;20059;-80
2023/07/23 07:34:17;;;;;;;1.33;0.90;;;;;;;23.81;41.12;100840.19;4952178;28;20087;-86
2023/07/23 07:36:47;;;;;;;2.70;1.10;;;;;;;23.77;40.94;100838.53;4947897;28;20040;-84
2023/07/23 07:39:18;;;;;;;1.23;1.00;;;;;;;23.75;40.61;100846.47;4951402;28;20115;-84
2023/07/23 07:41:47;;;;;;;1.45;1.00;;;;;;;23.73;43.53;100839.47;4951309;28;20387;-79
2023/07/23 07:44:15;;;;;;;1.35;1.00;;;;;;;23.70;43.12;100848.34;4949698;28;20055;-81
2023/07/23 07:46:50;;;;;;;1.10;1.00;;;;;;;23.68;41.53;100838.72;4951476;28;20087;-77
2023/07/23 07:49:19;;;;;;;1.45;1.00;;;;;;;23.67;42.09;100843.13;4953443;28;20057;-84
2023/07/23 07:51:49;;;;;;;1.83;0.82;;;;;;;23.65;43.15;100839.66;4955301;28;20043;-84
2023/07/23 07:54:20;;;;;;;2.00;1.10;;;;;;;23.61;41.14;100838.00;4951385;28;20043;-78
2023/07/23 07:56:58;;;;;;;1.30;0.95;;;;;;;23.55;41.24;100839.00;4945954;28;20071;-77
2023/07/23 07:59:26;;;;;;;1.15;0.90;;;;;;;;;;4951712;28;20048;-84
2023/07/23 08:01:55;;;;;;;1.83;1.02;;;;;;;23.46;42.53;100839.22;4953480;28;20066;-82
2023/07/23 08:04:24;;;;;;;1.83;0.98;;;;;;;23.39;42.49;100845.53;4952504;28;20698;-83
2023/07/23 08:06:55;;;;;;;1.65;0.90;;;;;;;23.32;42.32;100841.28;4945573;28;20043;-80
2023/07/23 08:09:26;;;;;;;1.10;1.00;;;;;;;23.26;43.66;100838.78;4944078;28;20142;-79
2023/07/23 08:11:56;;;;;;;1.48;1.00;;;;;;;23.10;43.79;100839.09;4947561;28;20055;-80
2023/07/23 08:14:27;;;;;;;1.30;1.10;;;;;;;22.99;43.97;100831.41;4945565;28;20046;-80
2023/07/23 08:16:57;;;;;;;1.88;1.15;;;;;;;22.85;43.85;100836.06;4949913;28;20058;-80
2023/07/23 08:19:26;;;;;;;1.52;1.20;;;;;;;22.80;44.25;100835.28;4951977;28;20055;-79
2023/07/23 08:21:55;;;;;;;1.20;1.00;;;;;;;22.79;44.56;100831.81;4946773;28;20051;-78
2023/07/23 08:24:26;;;;;;;1.33;0.90;;;;;;;22.80;44.71;100838.78;4949030;28;20569;-80
2023/07/23 08:27:02;;;;;;;3.08;1.13;;;;;;;22.75;44.56;100840.66;4947119;28;20078;-78
2023/07/23 08:29:33;;;;;;;1.40;1.02;;;;;;;22.69;45.03;100840.78;4944739;28;20102;-80
2023/07/23 08:32:03;;;;;;;2.05;1.05;;;;;;;22.63;45.36;100843.56;4948328;28;20513;-79
2023/07/23 08:34:32;;;;;;;1.05;0.80;;;;;;;22.55;45.63;100848.94;4943249;28;20050;-81
2023/07/23 08:37:04;;;;;;;1.63;1.23;;;;;;;22.46;45.94;100845.63;4945233;28;20049;-81
2023/07/23 08:39:34;;;;;;;;;;;;;;;22.41;46.81;100844.84;4946449;28;20508;-80
2023/07/23 08:42:30;;;;;;;2.28;0.98;;;;;;;22.36;46.86;100845.78;4946049;28;20390;-78
2023/07/23 08:45:29;;;;;;;2.95;1.13;;;;;;;22.34;46.94;100844.94;4948147;28;20146;-78
2023/07/23 08:48:16;;;;;;;1.33;0.93;;;;;;;22.29;47.41;100840.66;4941149;28;20962;-78
2023/07/23 08:50:46;;;;;;;1.95;1.02;;;;;;;22.20;46.33;100836.38;4944306;28;20071;-79
2023/07/23 08:53:16;;;;;;;1.55;0.88;;;;;;;22.16;47.76;100834.69;4948276;28;20054;-80
2023/07/23 08:55:47;;;;;;;0.98;0.60;;;;;;;22.12;48.10;100836.50;4949660;28;20733;-79
2023/07/23 08:58:17;;;;;;;2.13;1.20;;;;;;;22.05;47.68;100831.34;4945271;28;20074;-79
2023/07/23 09:00:47;;;;;;;1.40;0.95;;;;;;;21.95;47.91;100820.97;4949742;28;20106;-79
2023/07/23 09:03:20;;;;;;;1.50;0.93;;;;;;;21.88;49.20;100821.97;4952025;28;20047;-79
2023/07/23 09:05:48;;;;;;;2.05;1.08;;;;;;;21.83;49.50;100825.56;4949090;28;20046;-80
2023/07/23 09:08:17;;;;;;;1.35;1.02;;;;;;;21.75;49.36;100823.91;4946620;28;20138;-78
2023/07/23 09:10:47;;;;;;;2.13;0.73;;;;;;;21.73;48.29;100830.09;4935648;28;20056;-77
2023/07/23 09:13:16;;;;;;;2.08;0.95;;;;;;;21.72;47.17;100823.97;4947668;28;20111;-79
2023/07/23 09:15:53;;;;;;;1.25;0.80;;;;;;;21.73;46.37;100830.09;4948041;28;20047;-79
2023/07/23 09:18:22;;;;;;;0.85;0.65;;;;;;;21.71;47.32;100822.22;4944424;28;20138;-79
2023/07/23 09:20:51;;;;;;;1.20;1.00;;;;;;;21.68;49.71;100837.22;4946377;28;20048;-79
2023/07/23 09:23:19;;;;;;;2.10;0.60;;;;;;;21.61;49.34;100832.94;4947493;28;20660;-79
2023/07/23 09:25:50;;;;;;;1.17;0.80;;;;;;;21.52;48.39;100828.66;4945426;28;20051;-79
2023/07/23 09:28:22;;;;;;;1.85;0.90;;;;;;;21.43;48.40;100834.06;4943928;28;20062;-79
2023/07/23 09:30:55;;;;;;;1.55;1.35;;;;;;;21.37;50.50;100842.88;4945498;28;20055;-78
2023/07/23 09:33:29;;;;;;;1.13;0.90;;;;;;;21.29;48.29;100835.09;4941590;28;20153;-78
2023/07/23 09:36:02;;;;;;;1.42;0.80;;;;;;;21.25;48.56;100838.66;4946092;28;20055;-79
2023/07/23 09:38:32;;;;;;;1.10;0.82;;;;;;;21.21;48.79;100841.34;4946099;28;20051;-79
2023/07/23 09:41:02;;;;;;;2.78;0.98;;;;;;;21.15;49.59;100836.19;4950863;28;20114;-79
2023/07/23 09:43:31;;;;;;;3.28;0.88;;;;;;;21.07;48.90;100837.16;4948184;28;20051;-78
2023/07/23 09:46:00;;;;;;;0.93;0.77;;;;;;;21.07;48.82;100841.50;4953089;28;20557;-78
2023/07/23 09:48:29;;;;;;;1.45;0.93;;;;;;;21.07;49.09;100839.78;4952460;28;20043;-79
2023/07/23 09:50:59;;;;;;;2.15;0.88;;;;;;;21.10;48.25;100837.09;4954303;28;20441;-78
2023/07/23 09:53:30;;;;;;;1.70;0.90;;;;;;;21.12;48.36;100843.22;4950265;28;20059;-78
2023/07/23 09:56:01;;;;;;;3.20;0.87;;;;;;;21.13;47.48;100839.69;4942500;28;20643;-79
2023/07/23 09:58:31;;;;;;;3.75;0.98;;;;;;;21.12;48.26;100837.09;4950029;28;20067;-79
2023/07/23 10:01:00;;;;;;;1.77;1.10;;;;;;;21.08;48.42;100846.78;4955465;28;20052;-79
2023/07/23 10:03:29;;;;;;;1.63;0.95;;;;;;;21.05;49.37;100840.66;4947767;28;20662;-79
2023/07/23 10:05:58;;;;;;;1.38;0.98;;;;;;;20.98;51.06;100842.53;4951498;28;20050;-80
2023/07/23 10:08:28;;;;;;;2.47;1.10;;;;;;;20.95;50.20;100845.16;4952329;28;20521;-80
2023/07/23 10:10:57;;;;;;;1.63;0.90;;;;;;;20.90;49.80;100849.63;4951929;28;20501;-79
2023/07/23 10:13:27;;;;;;;1.23;0.60;;;;;;;20.85;48.98;100849.69;4950297;28;20490;-80
2023/07/23 10:15:57;;;;;;;0.90;0.50;;;;;;;20.83;48.30;100850.59;4946254;28;20054;-78
2023/07/23 10:18:29;;;;;;;0.82;0.50;;;;;;;20.79;48.28;100846.25;4946452;28;20079;-78
2023/07/23 10:20:58;;;;;;;1.27;0.95;;;;;;;20.79;47.90;100848.88;4949837;28;20106;-79
2023/07/23 10:23:27;;;;;;;1.10;0.77;;;;;;;20.76;47.57;100847.16;4949722;28;20141;-78
2023/07/23 10:26:21;;;;;;;1.50;0.98;;;;;;;20.76;47.25;100849.78;4947039;28;20138;-78
2023/07/23 10:28:53;;;;;;;0.88;0.55;;;;;;;20.73;46.97;100855.09;4951298;28;20474;-78
2023/07/23 10:31:25;;;;;;;1.00;0.90;;;;;;;20.71;47.14;100849.81;4948249;28;20059;-78
2023/07/23 10:33:57;;;;;;;1.08;0.80;;;;;;;20.70;46.60;100855.09;4948946;28;20142;-79
2023/07/23 10:36:26;;;;;;;1.23;0.82;;;;;;;20.70;46.59;100850.69;4949249;28;20062;-77
2023/07/23 10:39:20;;;;;;;1.13;0.70;;;;;;;20.69;47.03;100853.38;4947578;28;20497;-76
2023/07/23 10:41:50;;;;;;;1.30;0.60;;;;;;;20.70;46.81;100845.44;4950153;28;20055;-78
2023/07/23 10:44:25;;;;;;;1.73;0.70;;;;;;;20.69;47.03;100843.72;4951160;28;20069;-79
2023/07/23 10:46:54;;;;;;;1.27;0.60;;;;;;;20.68;47.43;100847.25;4946770;28;20713;-80
2023/07/23 10:49:24;;;;;;;0.98;0.70;;;;;;;20.67;47.30;100850.75;4946182;28;20559;-80
2023/07/23 10:51:53;;;;;;;0.93;0.75;;;;;;;20.65;47.20;100842.00;4946383;28;20079;-80
2023/07/23 10:54:22;;;;;;;1.67;0.90;;;;;;;20.64;47.37;100850.78;4945107;28;20625;-80
2023/07/23 10:56:51;;;;;;;1.58;0.90;;;;;;;20.59;47.43;100842.09;4950116;28;20044;-80
2023/07/23 10:59:24;;;;;;;4.00;0.88;;;;;;;20.46;47.93;100835.16;4947151;28;20055;-79
2023/07/23 11:01:53;;;;;;;1.33;0.70;;;;;;;20.46;49.13;100849.19;4947960;28;20517;-79
2023/07/23 11:04:26;;;;;;;1.05;0.70;;;;;;;20.37;48.96;100848.41;4945701;28;20489;-81
2023/07/23 11:07:00;;;;;;;2.63;0.77;;;;;;;20.29;49.13;100853.72;4947047;28;20493;-81
2023/07/23 11:09:30;;;;;;;2.13;1.15;;;;;;;20.22;49.19;100852.88;4949714;28;20051;-80
2023/07/23 11:11:59;;;;;;;3.58;0.73;;;;;;;20.16;51.73;100846.81;4948675;28;20054;-80
2023/07/23 11:14:31;;;;;;;1.17;0.77;;;;;;;20.01;51.94;100847.81;4950002;28;20066;-80
2023/07/23 11:17:01;;;;;;;1.45;0.70;;;;;;;19.94;51.60;100851.38;4949820;28;20043;-80
2023/07/23 11:19:31;;;;;;;1.27;0.85;;;;;;;19.90;51.75;100857.53;4947577;28;20144;-80
2023/07/23 11:22:01;;;;;;;2.10;0.80;;;;;;;19.86;51.13;100861.94;4949624;28;20135;-80
2023/07/23 11:24:32;;;;;;;1.58;0.80;;;;;;;19.82;52.17;100861.09;4949578;28;20169;-80
2023/07/23 11:27:01;;;;;;;3.17;0.80;;;;;;;19.82;51.95;100858.47;4947704;28;20086;-79
2023/07/23 11:29:32;;;;;;;0.80;0.70;;;;;;;19.81;51.89;100859.38;4948955;28;20043;-80
2023/07/23 11:32:03;;;;;;;1.30;0.95;;;;;;;19.79;51.31;100862.84;4943717;28;20058;-79
2023/07/23 11:34:33;;;;;;;1.90;0.73;;;;;;;19.74;51.64;100860.25;4948404;28;20061;-79
2023/07/23 11:37:02;;;;;;;2.03;0.90;;;;;;;19.68;51.91;100865.53;4942333;28;20055;-80
2023/07/23 11:39:31;;;;;;;1.38;0.70;;;;;;;19.63;52.64;100868.19;4946669;28;20067;-80
2023/07/23 11:41:59;;;;;;;3.20;0.85;;;;;;;19.59;52.76;100857.72;4948099;28;20174;-80